sensor_id;sensor_type;location;lat;lon;timestamp;P1;durP1;ratioP1;P2;durP2;ratioP2
8536;SDS011;4306;50.210;10.628;2022-09-09T00:00:49;3.13;;;0.98;;
8536;SDS011;4306;50.210;10.628;2022-09-09T00:03:23;3.50;;;1.23;;
8536;SDS011;4306;50.210;10.628;2022-09-09T00:05:55;2.40;;;1.30;;
8536;SDS011;4306;50.210;10.628;2022-09-09T00:08:32;1.75;;;1.00;;
8536;SDS011;4306;50.210;10.628;2022-09-09T00:11:05;3.28;;;0.95;;
8536;SDS011;4306;50.210;10.628;2022-09-09T00:13:34;2.58;;;0.90;;
8536;SDS011;4306;50.210;10.628;2022-09-09T00:16:08;4.05;;;1.00;;
8536;SDS011;4306;50.210;10.628;2022-09-09T00:18:46;3.60;;;1.10;;
8536;SDS011;4306;50.210;10.628;2022-09-09T00:21:19;2.78;;;1.02;;
8536;SDS011;4306;50.210;10.628;2022-09-09T00:23:54;3.78;;;1.00;;
8536;SDS011;4306;50.210;10.628;2022-09-09T00:26:22;2.35;;;1.00;;
8536;SDS011;4306;50.210;10.628;2022-09-09T00:28:58;1.77;;;1.10;;
8536;SDS011;4306;50.210;10.628;2022-09-09T00:31:31;2.25;;;1.00;;
8536;SDS011;4306;50.210;10.628;2022-09-09T00:34:00;3.08;;;0.98;;
8536;SDS011;4306;50.210;10.628;2022-09-09T00:36:34;1.98;;;1.08;;
8536;SDS011;4306;50.210;10.628;2022-09-09T00:39:03;3.53;;;1.13;;
8536;SDS011;4306;50.210;10.628;2022-09-09T00:41:33;2.25;;;1.10;;
8536;SDS011;4306;50.210;10.628;2022-09-09T00:44:17;2.80;;;1.17;;
8536;SDS011;4306;50.210;10.628;2022-09-09T00:46:58;2.88;;;1.50;;
8536;SDS011;4306;50.210;10.628;2022-09-09T00:49:38;3.85;;;1.20;;
8536;SDS011;4306;50.210;10.628;2022-09-09T00:52:16;3.53;;;1.13;;
8536;SDS011;4306;50.210;10.628;2022-09-09T00:54:51;4.63;;;1.10;;
8536;SDS011;4306;50.210;10.628;2022-09-09T00:57:25;3.03;;;1.10;;
8536;SDS011;4306;50.210;10.628;2022-09-09T00:59:58;2.40;;;1.00;;
8536;SDS011;4306;50.210;10.628;2022-09-09T01:02:45;1.73;;;0.95;;
8536;SDS011;4306;50.210;10.628;2022-09-09T01:05:32;3.80;;;1.10;;
8536;SDS011;4306;50.210;10.628;2022-09-09T01:08:11;3.55;;;0.98;;
8536;SDS011;4306;50.210;10.628;2022-09-09T01:10:53;2.22;;;1.20;;
8536;SDS011;4306;50.210;10.628;2022-09-09T01:13:22;3.25;;;1.40;;
8536;SDS011;4306;50.210;10.628;2022-09-09T01:15:51;3.03;;;1.30;;
8536;SDS011;4306;50.210;10.628;2022-09-09T01:18:21;2.53;;;1.20;;
8536;SDS011;4306;50.210;10.628;2022-09-09T01:20:54;3.13;;;1.13;;
8536;SDS011;4306;50.210;10.628;2022-09-09T01:23:33;2.67;;;1.15;;
8536;SDS011;4306;50.210;10.628;2022-09-09T01:26:14;2.47;;;1.27;;
8536;SDS011;4306;50.210;10.628;2022-09-09T01:28:46;3.97;;;1.00;;
8536;SDS011;4306;50.210;10.628;2022-09-09T01:31:16;2.75;;;1.10;;
8536;SDS011;4306;50.210;10.628;2022-09-09T01:33:46;4.13;;;1.17;;
8536;SDS011;4306;50.210;10.628;2022-09-09T01:36:14;2.47;;;1.10;;
8536;SDS011;4306;50.210;10.628;2022-09-09T01:38:51;5.68;;;1.10;;
8536;SDS011;4306;50.210;10.628;2022-09-09T01:41:19;1.75;;;0.82;;
8536;SDS011;4306;50.210;10.628;2022-09-09T01:43:47;4.47;;;1.30;;
8536;SDS011;4306;50.210;10.628;2022-09-09T01:46:14;2.67;;;1.17;;
8536;SDS011;4306;50.210;10.628;2022-09-09T01:48:42;3.90;;;1.00;;
8536;SDS011;4306;50.210;10.628;2022-09-09T01:51:10;3.25;;;1.00;;
8536;SDS011;4306;50.210;10.628;2022-09-09T01:53:37;2.67;;;0.93;;
8536;SDS011;4306;50.210;10.628;2022-09-09T01:56:08;4.15;;;1.20;;
8536;SDS011;4306;50.210;10.628;2022-09-09T01:58:50;3.75;;;1.13;;
8536;SDS011;4306;50.210;10.628;2022-09-09T02:01:30;3.58;;;1.00;;
8536;SDS011;4306;50.210;10.628;2022-09-09T02:04:10;1.73;;;0.90;;
8536;SDS011;4306;50.210;10.628;2022-09-09T02:06:43;3.22;;;1.00;;
8536;SDS011;4306;50.210;10.628;2022-09-09T02:09:12;1.80;;;1.00;;
8536;SDS011;4306;50.210;10.628;2022-09-09T02:11:41;3.40;;;1.25;;
8536;SDS011;4306;50.210;10.628;2022-09-09T02:14:14;3.28;;;1.20;;
8536;SDS011;4306;50.210;10.628;2022-09-09T02:16:46;3.03;;;1.02;;
8536;SDS011;4306;50.210;10.628;2022-09-09T02:19:16;2.85;;;0.90;;
8536;SDS011;4306;50.210;10.628;2022-09-09T02:21:51;1.67;;;1.15;;
8536;SDS011;4306;50.210;10.628;2022-09-09T02:24:20;2.25;;;1.27;;
8536;SDS011;4306;50.210;10.628;2022-09-09T02:26:49;5.07;;;1.10;;
8536;SDS011;4306;50.210;10.628;2022-09-09T02:29:21;2.58;;;1.20;;
8536;SDS011;4306;50.210;10.628;2022-09-09T02:31:53;2.55;;;1.13;;
8536;SDS011;4306;50.210;10.628;2022-09-09T02:34:24;3.00;;;1.30;;
8536;SDS011;4306;50.210;10.628;2022-09-09T02:36:53;3.83;;;1.15;;
8536;SDS011;4306;50.210;10.628;2022-09-09T02:39:23;2.13;;;1.00;;
8536;SDS011;4306;50.210;10.628;2022-09-09T02:41:50;3.60;;;0.90;;
8536;SDS011;4306;50.210;10.628;2022-09-09T02:44:17;3.20;;;1.10;;
8536;SDS011;4306;50.210;10.628;2022-09-09T02:46:52;3.17;;;1.00;;
8536;SDS011;4306;50.210;10.628;2022-09-09T02:49:33;4.20;;;1.30;;
8536;SDS011;4306;50.210;10.628;2022-09-09T02:52:07;2.45;;;0.90;;
8536;SDS011;4306;50.210;10.628;2022-09-09T02:54:37;2.10;;;1.02;;
8536;SDS011;4306;50.210;10.628;2022-09-09T02:57:06;4.85;;;1.10;;
8536;SDS011;4306;50.210;10.628;2022-09-09T02:59:37;3.70;;;1.10;;
8536;SDS011;4306;50.210;10.628;2022-09-09T03:02:05;2.80;;;1.30;;
8536;SDS011;4306;50.210;10.628;2022-09-09T03:04:35;1.35;;;0.95;;
8536;SDS011;4306;50.210;10.628;2022-09-09T03:07:02;2.70;;;1.08;;
8536;SDS011;4306;50.210;10.628;2022-09-09T03:09:29;2.72;;;1.48;;
8536;SDS011;4306;50.210;10.628;2022-09-09T03:11:57;4.13;;;1.20;;
8536;SDS011;4306;50.210;10.628;2022-09-09T03:14:26;4.32;;;1.30;;
8536;SDS011;4306;50.210;10.628;2022-09-09T03:16:53;3.38;;;1.20;;
8536;SDS011;4306;50.210;10.628;2022-09-09T03:19:22;6.53;;;1.52;;
8536;SDS011;4306;50.210;10.628;2022-09-09T03:21:49;2.53;;;1.10;;
8536;SDS011;4306;50.210;10.628;2022-09-09T03:24:16;4.03;;;1.20;;
8536;SDS011;4306;50.210;10.628;2022-09-09T03:26:43;2.63;;;1.17;;
8536;SDS011;4306;50.210;10.628;2022-09-09T03:29:10;6.32;;;1.23;;
8536;SDS011;4306;50.210;10.628;2022-09-09T03:31:38;2.17;;;1.10;;
8536;SDS011;4306;50.210;10.628;2022-09-09T03:34:05;2.63;;;1.25;;
8536;SDS011;4306;50.210;10.628;2022-09-09T03:36:34;1.98;;;1.05;;
8536;SDS011;4306;50.210;10.628;2022-09-09T03:39:02;2.03;;;1.10;;
8536;SDS011;4306;50.210;10.628;2022-09-09T03:41:29;2.05;;;1.02;;
8536;SDS011;4306;50.210;10.628;2022-09-09T03:43:57;3.45;;;1.13;;
8536;SDS011;4306;50.210;10.628;2022-09-09T03:46:24;1.20;;;0.90;;
8536;SDS011;4306;50.210;10.628;2022-09-09T03:48:52;1.42;;;0.82;;
8536;SDS011;4306;50.210;10.628;2022-09-09T03:51:19;2.90;;;1.02;;
8536;SDS011;4306;50.210;10.628;2022-09-09T03:53:48;3.00;;;1.17;;
8536;SDS011;4306;50.210;10.628;2022-09-09T03:56:15;2.03;;;1.08;;
8536;SDS011;4306;50.210;10.628;2022-09-09T03:58:42;2.88;;;1.13;;
8536;SDS011;4306;50.210;10.628;2022-09-09T04:01:10;3.10;;;1.38;;
8536;SDS011;4306;50.210;10.628;2022-09-09T04:03:39;2.72;;;1.30;;
8536;SDS011;4306;50.210;10.628;2022-09-09T04:06:07;3.08;;;1.17;;
8536;SDS011;4306;50.210;10.628;2022-09-09T04:08:35;2.17;;;0.90;;
8536;SDS011;4306;50.210;10.628;2022-09-09T04:11:05;3.85;;;1.30;;
8536;SDS011;4306;50.210;10.628;2022-09-09T04:13:33;3.25;;;1.20;;
8536;SDS011;4306;50.210;10.628;2022-09-09T04:16:04;2.22;;;1.00;;
8536;SDS011;4306;50.210;10.628;2022-09-09T04:18:31;2.97;;;1.80;;
8536;SDS011;4306;50.210;10.628;2022-09-09T04:20:59;2.28;;;1.15;;
8536;SDS011;4306;50.210;10.628;2022-09-09T04:23:26;4.13;;;1.13;;
8536;SDS011;4306;50.210;10.628;2022-09-09T04:25:55;3.88;;;1.35;;
8536;SDS011;4306;50.210;10.628;2022-09-09T04:28:25;5.05;;;1.48;;
8536;SDS011;4306;50.210;10.628;2022-09-09T04:30:54;3.47;;;1.30;;
8536;SDS011;4306;50.210;10.628;2022-09-09T04:33:23;4.38;;;1.83;;
8536;SDS011;4306;50.210;10.628;2022-09-09T04:35:51;4.15;;;1.05;;
8536;SDS011;4306;50.210;10.628;2022-09-09T04:38:19;4.32;;;1.60;;
8536;SDS011;4306;50.210;10.628;2022-09-09T04:40:47;3.63;;;1.50;;
8536;SDS011;4306;50.210;10.628;2022-09-09T04:43:16;3.67;;;1.65;;
8536;SDS011;4306;50.210;10.628;2022-09-09T04:45:46;4.30;;;1.50;;
8536;SDS011;4306;50.210;10.628;2022-09-09T04:48:14;4.03;;;1.50;;
8536;SDS011;4306;50.210;10.628;2022-09-09T04:50:41;4.82;;;1.58;;
8536;SDS011;4306;50.210;10.628;2022-09-09T04:53:08;3.25;;;1.20;;
8536;SDS011;4306;50.210;10.628;2022-09-09T04:55:35;4.15;;;1.38;;
8536;SDS011;4306;50.210;10.628;2022-09-09T04:58:03;2.38;;;1.33;;
8536;SDS011;4306;50.210;10.628;2022-09-09T05:00:30;1.98;;;1.30;;
8536;SDS011;4306;50.210;10.628;2022-09-09T05:02:59;4.88;;;1.70;;
8536;SDS011;4306;50.210;10.628;2022-09-09T05:05:29;4.40;;;2.10;;
8536;SDS011;4306;50.210;10.628;2022-09-09T05:08:00;3.53;;;2.05;;
8536;SDS011;4306;50.210;10.628;2022-09-09T05:10:28;5.03;;;1.70;;
8536;SDS011;4306;50.210;10.628;2022-09-09T05:12:54;4.97;;;1.92;;
8536;SDS011;4306;50.210;10.628;2022-09-09T05:15:21;4.85;;;1.88;;
8536;SDS011;4306;50.210;10.628;2022-09-09T05:17:48;5.43;;;1.90;;
8536;SDS011;4306;50.210;10.628;2022-09-09T05:20:18;4.25;;;2.13;;
8536;SDS011;4306;50.210;10.628;2022-09-09T05:22:46;4.47;;;1.80;;
8536;SDS011;4306;50.210;10.628;2022-09-09T05:25:14;5.78;;;1.75;;
8536;SDS011;4306;50.210;10.628;2022-09-09T05:27:41;4.22;;;2.05;;
8536;SDS011;4306;50.210;10.628;2022-09-09T05:30:08;3.25;;;1.60;;
8536;SDS011;4306;50.210;10.628;2022-09-09T05:32:35;5.30;;;1.92;;
8536;SDS011;4306;50.210;10.628;2022-09-09T05:35:03;7.82;;;2.40;;
8536;SDS011;4306;50.210;10.628;2022-09-09T05:37:31;4.15;;;2.38;;
8536;SDS011;4306;50.210;10.628;2022-09-09T05:39:58;4.90;;;2.10;;
8536;SDS011;4306;50.210;10.628;2022-09-09T05:42:29;4.43;;;2.70;;
8536;SDS011;4306;50.210;10.628;2022-09-09T05:44:56;4.20;;;2.38;;
8536;SDS011;4306;50.210;10.628;2022-09-09T05:47:23;4.20;;;2.17;;
8536;SDS011;4306;50.210;10.628;2022-09-09T05:49:52;4.25;;;1.95;;
8536;SDS011;4306;50.210;10.628;2022-09-09T05:52:20;5.32;;;3.10;;
8536;SDS011;4306;50.210;10.628;2022-09-09T05:54:49;4.18;;;2.75;;
8536;SDS011;4306;50.210;10.628;2022-09-09T05:57:16;4.97;;;2.80;;
8536;SDS011;4306;50.210;10.628;2022-09-09T05:59:44;3.80;;;2.42;;
8536;SDS011;4306;50.210;10.628;2022-09-09T06:02:11;4.45;;;1.90;;
8536;SDS011;4306;50.210;10.628;2022-09-09T06:04:38;4.45;;;2.15;;
8536;SDS011;4306;50.210;10.628;2022-09-09T06:07:05;4.72;;;2.15;;
8536;SDS011;4306;50.210;10.628;2022-09-09T06:09:32;4.35;;;2.03;;
8536;SDS011;4306;50.210;10.628;2022-09-09T06:12:00;3.08;;;2.15;;
8536;SDS011;4306;50.210;10.628;2022-09-09T06:14:27;4.05;;;1.98;;
8536;SDS011;4306;50.210;10.628;2022-09-09T06:16:54;4.68;;;2.10;;
8536;SDS011;4306;50.210;10.628;2022-09-09T06:19:21;6.72;;;2.40;;
8536;SDS011;4306;50.210;10.628;2022-09-09T06:21:51;3.65;;;2.30;;
8536;SDS011;4306;50.210;10.628;2022-09-09T06:24:18;5.90;;;2.83;;
8536;SDS011;4306;50.210;10.628;2022-09-09T06:26:46;6.10;;;2.90;;
8536;SDS011;4306;50.210;10.628;2022-09-09T06:29:14;3.58;;;2.13;;
8536;SDS011;4306;50.210;10.628;2022-09-09T06:31:41;6.43;;;1.90;;
8536;SDS011;4306;50.210;10.628;2022-09-09T06:34:08;7.30;;;2.20;;
8536;SDS011;4306;50.210;10.628;2022-09-09T06:36:36;5.47;;;1.85;;
8536;SDS011;4306;50.210;10.628;2022-09-09T06:39:04;4.15;;;1.80;;
8536;SDS011;4306;50.210;10.628;2022-09-09T06:41:33;6.72;;;1.50;;
8536;SDS011;4306;50.210;10.628;2022-09-09T06:44:00;6.00;;;1.90;;
8536;SDS011;4306;50.210;10.628;2022-09-09T06:46:29;2.25;;;1.10;;
8536;SDS011;4306;50.210;10.628;2022-09-09T06:48:58;4.40;;;1.65;;
8536;SDS011;4306;50.210;10.628;2022-09-09T06:51:26;5.07;;;1.33;;
8536;SDS011;4306;50.210;10.628;2022-09-09T06:53:55;5.03;;;1.23;;
8536;SDS011;4306;50.210;10.628;2022-09-09T06:56:23;2.47;;;1.33;;
8536;SDS011;4306;50.210;10.628;2022-09-09T06:58:53;4.53;;;1.30;;
8536;SDS011;4306;50.210;10.628;2022-09-09T07:01:21;4.68;;;1.40;;
8536;SDS011;4306;50.210;10.628;2022-09-09T07:03:51;7.38;;;1.50;;
8536;SDS011;4306;50.210;10.628;2022-09-09T07:06:20;4.50;;;1.10;;
8536;SDS011;4306;50.210;10.628;2022-09-09T07:08:49;4.53;;;1.23;;
8536;SDS011;4306;50.210;10.628;2022-09-09T07:11:17;3.13;;;1.10;;
8536;SDS011;4306;50.210;10.628;2022-09-09T07:13:45;3.17;;;1.63;;
8536;SDS011;4306;50.210;10.628;2022-09-09T07:16:13;1.65;;;0.90;;
8536;SDS011;4306;50.210;10.628;2022-09-09T07:18:41;3.05;;;0.98;;
8536;SDS011;4306;50.210;10.628;2022-09-09T07:21:10;2.75;;;1.05;;
8536;SDS011;4306;50.210;10.628;2022-09-09T07:23:38;2.40;;;1.17;;
8536;SDS011;4306;50.210;10.628;2022-09-09T07:26:07;4.28;;;1.05;;
8536;SDS011;4306;50.210;10.628;2022-09-09T07:28:35;4.50;;;1.00;;
8536;SDS011;4306;50.210;10.628;2022-09-09T07:31:03;4.60;;;1.00;;
8536;SDS011;4306;50.210;10.628;2022-09-09T07:33:31;2.63;;;0.98;;
8536;SDS011;4306;50.210;10.628;2022-09-09T07:36:03;2.33;;;1.10;;
8536;SDS011;4306;50.210;10.628;2022-09-09T07:38:36;4.13;;;1.40;;
8536;SDS011;4306;50.210;10.628;2022-09-09T07:41:05;4.70;;;1.63;;
8536;SDS011;4306;50.210;10.628;2022-09-09T07:43:34;1.95;;;0.90;;
8536;SDS011;4306;50.210;10.628;2022-09-09T07:46:01;5.68;;;0.98;;
8536;SDS011;4306;50.210;10.628;2022-09-09T07:48:28;3.25;;;1.00;;
8536;SDS011;4306;50.210;10.628;2022-09-09T07:51:05;3.15;;;1.20;;
8536;SDS011;4306;50.210;10.628;2022-09-09T07:53:35;3.28;;;1.00;;
8536;SDS011;4306;50.210;10.628;2022-09-09T07:56:04;3.90;;;0.90;;
8536;SDS011;4306;50.210;10.628;2022-09-09T07:58:32;1.75;;;0.88;;
8536;SDS011;4306;50.210;10.628;2022-09-09T08:00:59;3.75;;;1.00;;
8536;SDS011;4306;50.210;10.628;2022-09-09T08:03:26;4.03;;;0.88;;
8536;SDS011;4306;50.210;10.628;2022-09-09T08:05:59;2.17;;;0.93;;
8536;SDS011;4306;50.210;10.628;2022-09-09T08:08:27;2.45;;;0.85;;
8536;SDS011;4306;50.210;10.628;2022-09-09T08:11:02;2.80;;;0.95;;
8536;SDS011;4306;50.210;10.628;2022-09-09T08:13:30;2.38;;;0.95;;
8536;SDS011;4306;50.210;10.628;2022-09-09T08:16:03;3.78;;;1.10;;
8536;SDS011;4306;50.210;10.628;2022-09-09T08:18:31;2.83;;;0.93;;
8536;SDS011;4306;50.210;10.628;2022-09-09T08:21:04;2.83;;;0.63;;
8536;SDS011;4306;50.210;10.628;2022-09-09T08:23:32;2.83;;;0.70;;
8536;SDS011;4306;50.210;10.628;2022-09-09T08:26:04;2.63;;;0.80;;
8536;SDS011;4306;50.210;10.628;2022-09-09T08:28:32;2.88;;;0.90;;
8536;SDS011;4306;50.210;10.628;2022-09-09T08:31:04;5.00;;;0.95;;
8536;SDS011;4306;50.210;10.628;2022-09-09T08:33:32;2.00;;;0.70;;
8536;SDS011;4306;50.210;10.628;2022-09-09T08:36:01;2.78;;;0.80;;
8536;SDS011;4306;50.210;10.628;2022-09-09T08:38:28;3.92;;;1.00;;
8536;SDS011;4306;50.210;10.628;2022-09-09T08:40:56;3.47;;;1.10;;
8536;SDS011;4306;50.210;10.628;2022-09-09T08:43:33;2.25;;;1.00;;
8536;SDS011;4306;50.210;10.628;2022-09-09T08:46:02;2.60;;;0.90;;
8536;SDS011;4306;50.210;10.628;2022-09-09T08:48:44;3.85;;;0.93;;
8536;SDS011;4306;50.210;10.628;2022-09-09T08:51:18;5.85;;;1.00;;
8536;SDS011;4306;50.210;10.628;2022-09-09T08:53:47;2.92;;;0.82;;
8536;SDS011;4306;50.210;10.628;2022-09-09T08:56:21;2.97;;;0.88;;
8536;SDS011;4306;50.210;10.628;2022-09-09T08:58:50;3.05;;;0.95;;
8536;SDS011;4306;50.210;10.628;2022-09-09T09:01:29;5.63;;;1.20;;
8536;SDS011;4306;50.210;10.628;2022-09-09T09:04:13;1.58;;;0.80;;
8536;SDS011;4306;50.210;10.628;2022-09-09T09:06:50;3.00;;;0.88;;
8536;SDS011;4306;50.210;10.628;2022-09-09T09:09:26;6.55;;;0.95;;
8536;SDS011;4306;50.210;10.628;2022-09-09T09:12:06;4.18;;;1.08;;
8536;SDS011;4306;50.210;10.628;2022-09-09T09:14:38;2.97;;;0.93;;
8536;SDS011;4306;50.210;10.628;2022-09-09T09:17:06;2.80;;;0.90;;
8536;SDS011;4306;50.210;10.628;2022-09-09T09:19:40;4.15;;;1.00;;
8536;SDS011;4306;50.210;10.628;2022-09-09T09:22:10;4.43;;;1.08;;
8536;SDS011;4306;50.210;10.628;2022-09-09T09:24:45;3.17;;;1.13;;
8536;SDS011;4306;50.210;10.628;2022-09-09T09:27:21;5.63;;;1.30;;
8536;SDS011;4306;50.210;10.628;2022-09-09T09:29:57;2.70;;;1.15;;
8536;SDS011;4306;50.210;10.628;2022-09-09T09:32:27;2.47;;;1.00;;
8536;SDS011;4306;50.210;10.628;2022-09-09T09:34:57;2.63;;;1.13;;
8536;SDS011;4306;50.210;10.628;2022-09-09T09:37:26;4.97;;;1.10;;
8536;SDS011;4306;50.210;10.628;2022-09-09T09:39:55;2.38;;;1.00;;
8536;SDS011;4306;50.210;10.628;2022-09-09T09:42:23;4.93;;;1.27;;
8536;SDS011;4306;50.210;10.628;2022-09-09T09:44:51;2.35;;;0.75;;
8536;SDS011;4306;50.210;10.628;2022-09-09T09:47:19;3.83;;;1.02;;
8536;SDS011;4306;50.210;10.628;2022-09-09T09:49:53;3.60;;;1.08;;
8536;SDS011;4306;50.210;10.628;2022-09-09T09:52:24;2.65;;;1.13;;
8536;SDS011;4306;50.210;10.628;2022-09-09T09:54:53;3.45;;;0.80;;
8536;SDS011;4306;50.210;10.628;2022-09-09T09:57:24;3.83;;;1.02;;
8536;SDS011;4306;50.210;10.628;2022-09-09T10:00:00;3.60;;;0.90;;
8536;SDS011;4306;50.210;10.628;2022-09-09T10:02:31;2.05;;;0.88;;
8536;SDS011;4306;50.210;10.628;2022-09-09T10:05:05;4.22;;;1.20;;
8536;SDS011;4306;50.210;10.628;2022-09-09T10:07:38;3.05;;;1.00;;
8536;SDS011;4306;50.210;10.628;2022-09-09T10:10:08;4.47;;;1.02;;
8536;SDS011;4306;50.210;10.628;2022-09-09T10:12:42;4.30;;;0.80;;
8536;SDS011;4306;50.210;10.628;2022-09-09T10:15:24;3.00;;;0.80;;
8536;SDS011;4306;50.210;10.628;2022-09-09T10:17:59;4.85;;;1.15;;
8536;SDS011;4306;50.210;10.628;2022-09-09T10:20:36;2.20;;;0.68;;
8536;SDS011;4306;50.210;10.628;2022-09-09T10:23:13;1.55;;;0.73;;
8536;SDS011;4306;50.210;10.628;2022-09-09T10:28:58;3.17;;;0.88;;
8536;SDS011;4306;50.210;10.628;2022-09-09T10:31:49;4.47;;;1.02;;
8536;SDS011;4306;50.210;10.628;2022-09-09T10:34:29;3.05;;;0.82;;
8536;SDS011;4306;50.210;10.628;2022-09-09T10:37:11;5.50;;;1.05;;
8536;SDS011;4306;50.210;10.628;2022-09-09T10:39:48;3.78;;;1.10;;
8536;SDS011;4306;50.210;10.628;2022-09-09T10:42:25;3.63;;;0.80;;
8536;SDS011;4306;50.210;10.628;2022-09-09T10:45:00;6.00;;;1.00;;
8536;SDS011;4306;50.210;10.628;2022-09-09T10:47:43;4.13;;;1.13;;
8536;SDS011;4306;50.210;10.628;2022-09-09T10:50:43;3.70;;;1.02;;
8536;SDS011;4306;50.210;10.628;2022-09-09T10:53:19;1.98;;;0.70;;
8536;SDS011;4306;50.210;10.628;2022-09-09T10:55:56;3.45;;;0.98;;
8536;SDS011;4306;50.210;10.628;2022-09-09T10:58:31;4.85;;;0.90;;
8536;SDS011;4306;50.210;10.628;2022-09-09T11:01:09;4.65;;;1.10;;
8536;SDS011;4306;50.210;10.628;2022-09-09T11:03:41;2.88;;;1.02;;
8536;SDS011;4306;50.210;10.628;2022-09-09T11:06:10;3.83;;;1.00;;
8536;SDS011;4306;50.210;10.628;2022-09-09T11:08:40;3.45;;;0.90;;
8536;SDS011;4306;50.210;10.628;2022-09-09T11:11:09;2.95;;;0.98;;
8536;SDS011;4306;50.210;10.628;2022-09-09T11:13:42;4.57;;;1.00;;
8536;SDS011;4306;50.210;10.628;2022-09-09T11:16:19;4.60;;;0.95;;
8536;SDS011;4306;50.210;10.628;2022-09-09T11:18:50;3.45;;;0.93;;
8536;SDS011;4306;50.210;10.628;2022-09-09T11:21:25;2.03;;;0.75;;
8536;SDS011;4306;50.210;10.628;2022-09-09T11:23:57;5.43;;;0.90;;
8536;SDS011;4306;50.210;10.628;2022-09-09T11:26:29;4.65;;;0.80;;
8536;SDS011;4306;50.210;10.628;2022-09-09T11:29:03;3.25;;;0.90;;
8536;SDS011;4306;50.210;10.628;2022-09-09T11:31:45;2.95;;;1.00;;
8536;SDS011;4306;50.210;10.628;2022-09-09T11:34:33;3.15;;;0.80;;
8536;SDS011;4306;50.210;10.628;2022-09-09T11:37:31;3.08;;;0.80;;
8536;SDS011;4306;50.210;10.628;2022-09-09T11:40:17;2.15;;;0.70;;
8536;SDS011;4306;50.210;10.628;2022-09-09T11:42:48;3.97;;;0.93;;
8536;SDS011;4306;50.210;10.628;2022-09-09T11:45:27;3.03;;;0.68;;
8536;SDS011;4306;50.210;10.628;2022-09-09T11:47:57;2.85;;;1.00;;
8536;SDS011;4306;50.210;10.628;2022-09-09T11:50:28;6.00;;;1.20;;
8536;SDS011;4306;50.210;10.628;2022-09-09T11:53:17;10.32;;;1.33;;
8536;SDS011;4306;50.210;10.628;2022-09-09T11:55:47;6.05;;;1.40;;
8536;SDS011;4306;50.210;10.628;2022-09-09T11:58:26;4.15;;;1.10;;
8536;SDS011;4306;50.210;10.628;2022-09-09T12:00:57;3.10;;;0.90;;
8536;SDS011;4306;50.210;10.628;2022-09-09T12:03:36;5.43;;;1.38;;
8536;SDS011;4306;50.210;10.628;2022-09-09T12:06:15;3.95;;;0.90;;
8536;SDS011;4306;50.210;10.628;2022-09-09T12:08:46;4.45;;;0.93;;
8536;SDS011;4306;50.210;10.628;2022-09-09T12:11:27;3.47;;;0.98;;
8536;SDS011;4306;50.210;10.628;2022-09-09T12:13:56;9.50;;;1.27;;
8536;SDS011;4306;50.210;10.628;2022-09-09T12:16:29;5.38;;;1.00;;
8536;SDS011;4306;50.210;10.628;2022-09-09T12:19:12;2.70;;;0.80;;
8536;SDS011;4306;50.210;10.628;2022-09-09T12:21:44;4.13;;;0.77;;
8536;SDS011;4306;50.210;10.628;2022-09-09T12:24:19;5.03;;;0.90;;
8536;SDS011;4306;50.210;10.628;2022-09-09T12:26:55;4.78;;;1.00;;
8536;SDS011;4306;50.210;10.628;2022-09-09T12:29:30;3.15;;;0.90;;
8536;SDS011;4306;50.210;10.628;2022-09-09T12:32:05;4.38;;;1.00;;
8536;SDS011;4306;50.210;10.628;2022-09-09T12:34:40;2.15;;;0.88;;
8536;SDS011;4306;50.210;10.628;2022-09-09T12:37:15;4.90;;;1.33;;
8536;SDS011;4306;50.210;10.628;2022-09-09T12:39:49;3.15;;;0.88;;
8536;SDS011;4306;50.210;10.628;2022-09-09T12:42:20;2.80;;;0.90;;
8536;SDS011;4306;50.210;10.628;2022-09-09T12:44:52;3.40;;;0.90;;
8536;SDS011;4306;50.210;10.628;2022-09-09T12:47:20;2.40;;;0.60;;
8536;SDS011;4306;50.210;10.628;2022-09-09T12:49:51;1.67;;;0.70;;
8536;SDS011;4306;50.210;10.628;2022-09-09T12:52:22;2.70;;;0.60;;
8536;SDS011;4306;50.210;10.628;2022-09-09T12:54:55;2.58;;;0.65;;
8536;SDS011;4306;50.210;10.628;2022-09-09T12:57:24;2.70;;;0.70;;
8536;SDS011;4306;50.210;10.628;2022-09-09T13:00:03;3.50;;;0.45;;
8536;SDS011;4306;50.210;10.628;2022-09-09T13:02:33;4.50;;;0.65;;
8536;SDS011;4306;50.210;10.628;2022-09-09T13:05:09;2.15;;;0.57;;
8536;SDS011;4306;50.210;10.628;2022-09-09T13:07:42;1.85;;;0.47;;
8536;SDS011;4306;50.210;10.628;2022-09-09T13:10:10;2.72;;;0.50;;
8536;SDS011;4306;50.210;10.628;2022-09-09T13:12:38;1.23;;;0.47;;
8536;SDS011;4306;50.210;10.628;2022-09-09T13:15:09;1.98;;;0.63;;
8536;SDS011;4306;50.210;10.628;2022-09-09T13:17:48;2.20;;;0.52;;
8536;SDS011;4306;50.210;10.628;2022-09-09T13:20:18;3.72;;;0.60;;
8536;SDS011;4306;50.210;10.628;2022-09-09T13:22:46;2.85;;;0.80;;
8536;SDS011;4306;50.210;10.628;2022-09-09T13:25:18;1.45;;;0.60;;
8536;SDS011;4306;50.210;10.628;2022-09-09T13:27:58;1.38;;;0.50;;
8536;SDS011;4306;50.210;10.628;2022-09-09T13:30:26;1.35;;;0.55;;
8536;SDS011;4306;50.210;10.628;2022-09-09T13:33:05;3.78;;;0.80;;
8536;SDS011;4306;50.210;10.628;2022-09-09T13:35:50;2.22;;;0.60;;
8536;SDS011;4306;50.210;10.628;2022-09-09T13:38:20;2.72;;;0.70;;
8536;SDS011;4306;50.210;10.628;2022-09-09T13:40:54;3.05;;;0.77;;
8536;SDS011;4306;50.210;10.628;2022-09-09T13:43:26;4.68;;;0.75;;
8536;SDS011;4306;50.210;10.628;2022-09-09T13:45:55;3.20;;;0.57;;
8536;SDS011;4306;50.210;10.628;2022-09-09T13:48:23;1.95;;;0.60;;
8536;SDS011;4306;50.210;10.628;2022-09-09T13:50:56;2.85;;;0.70;;
8536;SDS011;4306;50.210;10.628;2022-09-09T13:53:24;1.52;;;0.55;;
8536;SDS011;4306;50.210;10.628;2022-09-09T13:55:51;1.58;;;0.50;;
8536;SDS011;4306;50.210;10.628;2022-09-09T13:58:19;2.65;;;0.70;;
8536;SDS011;4306;50.210;10.628;2022-09-09T14:00:47;1.88;;;0.80;;
8536;SDS011;4306;50.210;10.628;2022-09-09T14:03:15;4.88;;;1.00;;
8536;SDS011;4306;50.210;10.628;2022-09-09T14:05:42;4.40;;;0.65;;
8536;SDS011;4306;50.210;10.628;2022-09-09T14:08:18;1.98;;;0.55;;
8536;SDS011;4306;50.210;10.628;2022-09-09T14:10:48;1.75;;;0.70;;
8536;SDS011;4306;50.210;10.628;2022-09-09T14:13:15;4.40;;;0.70;;
8536;SDS011;4306;50.210;10.628;2022-09-09T14:15:42;1.58;;;0.70;;
8536;SDS011;4306;50.210;10.628;2022-09-09T14:18:10;1.77;;;0.80;;
8536;SDS011;4306;50.210;10.628;2022-09-09T14:20:39;2.97;;;0.70;;
8536;SDS011;4306;50.210;10.628;2022-09-09T14:23:10;3.25;;;0.90;;
8536;SDS011;4306;50.210;10.628;2022-09-09T14:25:40;2.30;;;0.55;;
8536;SDS011;4306;50.210;10.628;2022-09-09T14:28:11;4.47;;;0.70;;
8536;SDS011;4306;50.210;10.628;2022-09-09T14:30:39;4.93;;;0.70;;
8536;SDS011;4306;50.210;10.628;2022-09-09T14:33:08;2.60;;;0.57;;
8536;SDS011;4306;50.210;10.628;2022-09-09T14:35:38;2.17;;;0.60;;
8536;SDS011;4306;50.210;10.628;2022-09-09T14:38:06;1.60;;;0.65;;
8536;SDS011;4306;50.210;10.628;2022-09-09T14:40:34;3.75;;;0.80;;
8536;SDS011;4306;50.210;10.628;2022-09-09T14:43:03;2.15;;;0.73;;
8536;SDS011;4306;50.210;10.628;2022-09-09T14:45:30;1.67;;;0.82;;
8536;SDS011;4306;50.210;10.628;2022-09-09T14:47:58;3.45;;;0.82;;
8536;SDS011;4306;50.210;10.628;2022-09-09T14:50:25;3.15;;;0.77;;
8536;SDS011;4306;50.210;10.628;2022-09-09T14:52:52;1.27;;;0.65;;
8536;SDS011;4306;50.210;10.628;2022-09-09T14:55:19;2.58;;;0.80;;
8536;SDS011;4306;50.210;10.628;2022-09-09T14:57:46;3.63;;;0.80;;
8536;SDS011;4306;50.210;10.628;2022-09-09T15:00:14;2.17;;;0.70;;
8536;SDS011;4306;50.210;10.628;2022-09-09T15:02:42;1.33;;;0.55;;
8536;SDS011;4306;50.210;10.628;2022-09-09T15:05:08;2.53;;;0.75;;
8536;SDS011;4306;50.210;10.628;2022-09-09T15:07:35;1.77;;;0.80;;
8536;SDS011;4306;50.210;10.628;2022-09-09T15:10:03;3.45;;;0.60;;
8536;SDS011;4306;50.210;10.628;2022-09-09T15:12:31;1.92;;;0.57;;
8536;SDS011;4306;50.210;10.628;2022-09-09T15:15:00;2.30;;;0.70;;
8536;SDS011;4306;50.210;10.628;2022-09-09T15:17:32;3.90;;;0.88;;
8536;SDS011;4306;50.210;10.628;2022-09-09T15:19:59;2.97;;;0.70;;
8536;SDS011;4306;50.210;10.628;2022-09-09T15:22:25;3.33;;;0.55;;
8536;SDS011;4306;50.210;10.628;2022-09-09T15:24:52;3.50;;;0.75;;
8536;SDS011;4306;50.210;10.628;2022-09-09T15:27:19;2.70;;;0.80;;